Time,TemperatureF,DewpointF,PressureIn,WindDirection,WindDirectionDegrees,WindSpeedMPH,WindSpeedGustMPH,Humidity,HourlyPrecipIn,Conditions,Clouds,dailyrainin,SoftwareType,DateUTC
2013-03-19 00:00:00,60.7,59.8,29.83,WNW,295,26.0,34.0,97,0.00,,,0.00,Wunderground v.1.15,2013-03-19 04:00:00,
2013-03-19 00:04:00,59.9,59.9,29.83,NW,306,31.0,35.0,100,1.91,,,0.06,Wunderground v.1.15,2013-03-19 04:04:00,
2013-03-19 00:08:00,59.8,59.8,29.83,NNW,332,30.0,35.0,100,1.96,,,0.21,Wunderground v.1.15,2013-03-19 04:08:00,
2013-03-19 00:12:00,59.5,59.5,29.83,NNW,342,27.0,28.0,100,0.24,,,0.23,Wunderground v.1.15,2013-03-19 04:12:00,
2013-03-19 00:18:00,59.2,59.2,29.82,NNW,333,25.0,28.0,100,0.12,,,0.24,Wunderground v.1.15,2013-03-19 04:18:00,
2013-03-19 00:24:00,59.2,59.2,29.82,NNW,328,23.0,25.0,100,0.10,,,0.26,Wunderground v.1.15,2013-03-19 04:24:00,
2013-03-19 00:30:00,59.0,59.0,29.82,NNW,330,23.0,23.0,100,0.13,,,0.27,Wunderground v.1.15,2013-03-19 04:30:00,
2013-03-19 00:38:00,58.9,58.9,29.82,NNW,335,21.0,25.0,100,0.06,,,0.27,Wunderground v.1.15,2013-03-19 04:38:00,
2013-03-19 00:44:00,58.9,58.9,29.82,NNW,328,17.0,20.0,100,0.06,,,0.28,Wunderground v.1.15,2013-03-19 04:44:00,
2013-03-19 00:50:00,58.7,58.7,29.82,NNW,333,14.0,16.0,100,0.05,,,0.28,Wunderground v.1.15,2013-03-19 04:50:00,
2013-03-19 00:58:00,58.6,58.6,29.82,NNW,332,13.0,16.0,100,0.00,,,0.29,Wunderground v.1.15,2013-03-19 04:58:00,
2013-03-19 01:04:00,58.4,58.4,29.82,NNW,335,11.0,13.0,100,0.00,,,0.29,Wunderground v.1.15,2013-03-19 05:04:00,
2013-03-19 01:10:00,58.4,58.4,29.82,North,349,9.0,9.0,100,0.00,,,0.29,Wunderground v.1.15,2013-03-19 05:10:00,
2013-03-19 01:18:00,58.4,58.4,29.80,North,359,7.0,9.0,100,0.00,,,0.29,Wunderground v.1.15,2013-03-19 05:18:00,
2013-03-19 01:24:00,58.3,58.3,29.80,NNW,335,6.0,7.0,100,0.00,,,0.29,Wunderground v.1.15,2013-03-19 05:24:00,
2013-03-19 01:30:00,57.8,57.8,29.80,NNW,336,5.0,7.0,100,0.00,,,0.29,Wunderground v.1.15,2013-03-19 05:30:00,
2013-03-19 01:36:00,57.5,57.5,29.80,NNW,342,6.0,8.0,100,0.00,,,0.29,Wunderground v.1.15,2013-03-19 05:36:00,
2013-03-19 01:42:00,57.3,57.3,29.80,NNW,340,6.0,6.0,100,0.00,,,0.29,Wunderground v.1.15,2013-03-19 05:42:00,
2013-03-19 01:48:00,57.2,57.2,29.79,NNW,328,5.0,6.0,100,0.00,,,0.29,Wunderground v.1.15,2013-03-19 05:48:00,
2013-03-19 01:54:00,57.3,57.3,29.79,NW,315,4.0,4.0,100,0.00,,,0.29,Wunderground v.1.15,2013-03-19 05:54:00,
2013-03-19 02:00:00,57.2,57.2,29.78,NW,315,2.0,3.0,100,0.00,,,0.29,Wunderground v.1.15,2013-03-19 06:00:00,
2013-03-19 02:06:00,57.2,57.2,29.78,NW,315,1.0,3.0,100,0.00,,,0.29,Wunderground v.1.15,2013-03-19 06:06:00,
2013-03-19 02:12:00,57.2,57.2,29.78,NW,315,0.0,0.0,100,0.00,,,0.29,Wunderground v.1.15,2013-03-19 06:12:00,
2013-03-19 02:18:00,57.2,57.2,29.76,ESE,117,1.0,2.0,100,0.00,,,0.29,Wunderground v.1.15,2013-03-19 06:18:00,
2013-03-19 02:24:00,57.2,57.2,29.76,SE,138,2.0,6.0,100,0.00,,,0.29,Wunderground v.1.15,2013-03-19 06:24:00,
2013-03-19 02:30:00,57.2,57.2,29.74,SE,131,3.0,3.0,100,0.00,,,0.29,Wunderground v.1.15,2013-03-19 06:30:00,
2013-03-19 02:38:00,57.3,57.3,29.74,SW,216,3.0,8.0,100,0.00,,,0.29,Wunderground v.1.15,2013-03-19 06:38:00,
2013-03-19 02:44:00,57.5,57.5,29.74,SSE,167,3.0,3.0,100,0.00,,,0.29,Wunderground v.1.15,2013-03-19 06:44:00,
2013-03-19 02:50:00,57.3,57.3,29.74,South,181,3.0,3.0,100,0.00,,,0.29,Wunderground v.1.15,2013-03-19 06:50:00,
2013-03-19 02:56:00,57.5,57.5,29.74,SSE,162,3.0,5.0,100,0.00,,,0.29,Wunderground v.1.15,2013-03-19 06:56:00,
2013-03-19 03:02:00,57.8,57.8,29.75,SW,222,3.0,5.0,100,0.00,,,0.29,Wunderground v.1.15,2013-03-19 07:02:00,
2013-03-19 03:08:00,58.0,58.0,29.75,SSW,192,3.0,6.0,100,0.00,,,0.29,Wunderground v.1.15,2013-03-19 07:08:00,
2013-03-19 03:14:00,58.0,58.0,29.76,WSW,254,4.0,7.0,100,0.00,,,0.29,Wunderground v.1.15,2013-03-19 07:14:00,
2013-03-19 03:20:00,58.0,58.0,29.76,West,261,4.0,4.0,100,0.00,,,0.29,Wunderground v.1.15,2013-03-19 07:20:00,
2013-03-19 03:28:00,58.1,58.1,29.76,NW,312,3.0,4.0,100,0.00,,,0.29,Wunderground v.1.15,2013-03-19 07:28:00,
2013-03-19 03:34:00,58.1,58.1,29.76,WNW,285,4.0,10.0,100,0.00,,,0.29,Wunderground v.1.15,2013-03-19 07:34:00,
2013-03-19 03:40:00,58.1,58.1,29.76,NW,309,4.0,7.0,100,0.00,,,0.29,Wunderground v.1.15,2013-03-19 07:40:00,
2013-03-19 03:46:00,58.1,58.1,29.75,SW,229,3.0,7.0,100,0.00,,,0.29,Wunderground v.1.15,2013-03-19 07:46:00,
2013-03-19 03:52:00,58.0,58.0,29.75,SW,219,3.0,5.0,100,0.00,,,0.29,Wunderground v.1.15,2013-03-19 07:52:00,
2013-03-19 03:58:00,58.0,58.0,29.75,WNW,287,4.0,6.0,100,0.00,,,0.29,Wunderground v.1.15,2013-03-19 07:58:00,
2013-03-19 04:04:00,58.1,58.1,29.76,WNW,294,5.0,7.0,100,0.00,,,0.29,Wunderground v.1.15,2013-03-19 08:04:00,
2013-03-19 04:10:00,58.1,58.1,29.76,West,275,5.0,5.0,100,0.00,,,0.29,Wunderground v.1.15,2013-03-19 08:10:00,
2013-03-19 04:16:00,58.1,58.1,29.75,WNW,285,3.0,5.0,100,0.00,,,0.29,Wunderground v.1.15,2013-03-19 08:16:00,
2013-03-19 04:22:00,58.1,58.1,29.75,West,265,3.0,8.0,100,0.00,,,0.29,Wunderground v.1.15,2013-03-19 08:22:00,
2013-03-19 04:28:00,58.1,58.1,29.75,West,265,4.0,8.0,100,0.00,,,0.29,Wunderground v.1.15,2013-03-19 08:28:00,
2013-03-19 04:34:00,58.1,58.1,29.75,WNW,287,4.0,5.0,100,0.00,,,0.29,Wunderground v.1.15,2013-03-19 08:34:00,
2013-03-19 04:40:00,58.1,58.1,29.75,West,265,6.0,8.0,100,0.00,,,0.29,Wunderground v.1.15,2013-03-19 08:40:00,
2013-03-19 04:48:00,58.1,58.1,29.74,WSW,248,5.0,8.0,100,0.00,,,0.29,Wunderground v.1.15,2013-03-19 08:48:00,
2013-03-19 04:54:00,58.1,58.1,29.74,WNW,295,3.0,4.0,100,0.00,,,0.29,Wunderground v.1.15,2013-03-19 08:54:00,
2013-03-19 05:00:00,58.0,58.0,29.73,WNW,302,4.0,6.0,100,0.00,,,0.29,Wunderground v.1.15,2013-03-19 09:00:00,
2013-03-19 05:08:00,58.1,58.1,29.73,WNW,301,6.0,10.0,100,0.00,,,0.29,Wunderground v.1.15,2013-03-19 09:08:00,
2013-03-19 05:14:00,58.1,58.1,29.73,NW,305,7.0,8.0,100,0.00,,,0.29,Wunderground v.1.15,2013-03-19 09:14:00,
2013-03-19 05:20:00,58.1,58.1,29.73,WNW,302,7.0,7.0,100,0.00,,,0.29,Wunderground v.1.15,2013-03-19 09:20:00,
2013-03-19 05:28:00,58.0,58.0,29.73,NW,322,7.0,10.0,100,0.00,,,0.29,Wunderground v.1.15,2013-03-19 09:28:00,
2013-03-19 05:34:00,58.0,58.0,29.72,NW,315,5.0,7.0,100,0.00,,,0.29,Wunderground v.1.15,2013-03-19 09:34:00,
2013-03-19 05:40:00,57.8,57.8,29.72,NW,308,4.0,4.0,100,0.00,,,0.29,Wunderground v.1.15,2013-03-19 09:40:00,
2013-03-19 05:48:00,57.6,57.6,29.72,NW,306,4.0,5.0,100,0.00,,,0.29,Wunderground v.1.15,2013-03-19 09:48:00,
2013-03-19 05:54:00,57.5,57.5,29.72,NW,306,5.0,7.0,100,0.00,,,0.29,Wunderground v.1.15,2013-03-19 09:54:00,
2013-03-19 06:00:00,57.6,57.6,29.73,NW,309,7.0,7.0,100,0.00,,,0.29,Wunderground v.1.15,2013-03-19 10:00:00,
2013-03-19 06:06:00,57.6,57.6,29.73,NW,309,7.0,7.0,100,0.00,,,0.29,Wunderground v.1.15,2013-03-19 10:06:00,
2013-03-19 06:12:00,57.5,57.5,29.73,NW,305,7.0,7.0,100,0.00,,,0.29,Wunderground v.1.15,2013-03-19 10:12:00,
2013-03-19 06:18:00,57.5,57.5,29.74,NW,306,6.0,7.0,100,0.00,,,0.29,Wunderground v.1.15,2013-03-19 10:18:00,
2013-03-19 06:24:00,57.3,57.3,29.74,WNW,302,6.0,6.0,100,0.00,,,0.29,Wunderground v.1.15,2013-03-19 10:24:00,
2013-03-19 06:30:00,57.3,57.3,29.75,West,277,5.0,7.0,100,0.00,,,0.29,Wunderground v.1.15,2013-03-19 10:30:00,
2013-03-19 06:38:00,57.3,57.3,29.75,WNW,289,6.0,7.0,100,0.00,,,0.29,Wunderground v.1.15,2013-03-19 10:38:00,
2013-03-19 06:44:00,57.3,57.3,29.77,WNW,292,6.0,6.0,100,0.00,,,0.30,Wunderground v.1.15,2013-03-19 10:44:00,
2013-03-19 06:50:00,57.3,57.3,29.77,West,281,7.0,7.0,100,0.00,,,0.30,Wunderground v.1.15,2013-03-19 10:50:00,
2013-03-19 06:58:00,57.3,57.3,29.77,WNW,301,7.0,7.0,100,0.00,,,0.30,Wunderground v.1.15,2013-03-19 10:58:00,
2013-03-19 07:04:00,57.5,57.5,29.79,WNW,291,7.0,8.0,100,0.00,,,0.30,Wunderground v.1.15,2013-03-19 11:04:00,
2013-03-19 07:10:00,57.5,57.5,29.79,WNW,294,8.0,8.0,100,0.00,,,0.30,Wunderground v.1.15,2013-03-19 11:10:00,
2013-03-19 07:16:00,57.3,57.3,29.79,NW,304,8.0,8.0,100,0.00,,,0.30,Wunderground v.1.15,2013-03-19 11:16:00,
2013-03-19 07:22:00,57.5,57.5,29.79,NW,306,9.0,12.0,100,0.00,,,0.30,Wunderground v.1.15,2013-03-19 11:22:00,
2013-03-19 07:28:00,57.5,57.5,29.79,NW,309,11.0,12.0,100,0.00,,,0.30,Wunderground v.1.15,2013-03-19 11:28:00,
2013-03-19 07:34:00,57.5,57.5,29.79,NW,308,11.0,12.0,100,0.00,,,0.30,Wunderground v.1.15,2013-03-19 11:34:00,
2013-03-19 07:40:00,57.6,57.6,29.79,WNW,295,10.0,10.0,100,0.00,,,0.30,Wunderground v.1.15,2013-03-19 11:40:00,
2013-03-19 07:46:00,57.8,57.8,29.79,WNW,302,9.0,12.0,100,0.00,,,0.30,Wunderground v.1.15,2013-03-19 11:46:00,
2013-03-19 07:52:00,58.0,58.0,29.79,WNW,302,11.0,15.0,100,0.00,,,0.30,Wunderground v.1.15,2013-03-19 11:52:00,
2013-03-19 07:58:00,58.0,58.0,29.79,NW,305,12.0,15.0,100,0.00,,,0.30,Wunderground v.1.15,2013-03-19 11:58:00,
2013-03-19 08:16:00,58.4,58.4,29.80,NW,313,11.0,11.0,100,0.00,,,0.30,Wunderground v.1.15,2013-03-19 12:16:00,
2013-03-19 08:22:00,58.4,58.4,29.80,WNW,301,12.0,13.0,100,0.00,,,0.30,Wunderground v.1.15,2013-03-19 12:22:00,
2013-03-19 08:28:00,58.4,58.4,29.80,WNW,301,11.0,11.0,100,0.00,,,0.30,Wunderground v.1.15,2013-03-19 12:28:00,
2013-03-19 08:34:00,58.6,58.6,29.79,WNW,302,10.0,12.0,100,0.00,,,0.30,Wunderground v.1.15,2013-03-19 12:34:00,
2013-03-19 08:40:00,58.6,58.6,29.79,NW,306,10.0,12.0,100,0.00,,,0.30,Wunderground v.1.15,2013-03-19 12:40:00,
2013-03-19 08:48:00,58.6,58.6,29.78,NW,306,9.0,11.0,100,0.00,,,0.30,Wunderground v.1.15,2013-03-19 12:48:00,
2013-03-19 08:54:00,58.6,58.6,29.78,NW,309,11.0,16.0,100,0.00,,,0.30,Wunderground v.1.15,2013-03-19 12:54:00,
2013-03-19 09:00:00,58.6,58.6,29.81,NW,315,15.0,17.0,100,0.00,,,0.30,Wunderground v.1.15,2013-03-19 13:00:00,
2013-03-19 09:06:00,58.7,58.7,29.81,NW,311,17.0,19.0,100,0.00,,,0.30,Wunderground v.1.15,2013-03-19 13:06:00,
2013-03-19 09:12:00,58.9,58.9,29.81,NW,322,15.0,18.0,100,0.00,,,0.30,Wunderground v.1.15,2013-03-19 13:12:00,
2013-03-19 09:18:00,59.0,59.0,29.81,NW,315,16.0,19.0,100,0.00,,,0.30,Wunderground v.1.15,2013-03-19 13:18:00,
2013-03-19 09:24:00,59.3,59.3,29.81,NW,306,18.0,20.0,100,0.00,,,0.30,Wunderground v.1.15,2013-03-19 13:24:00,
2013-03-19 09:30:00,59.5,59.5,29.82,NW,306,19.0,24.0,100,0.00,,,0.30,Wunderground v.1.15,2013-03-19 13:30:00,
2013-03-19 09:38:00,59.5,59.5,29.82,NNW,328,20.0,24.0,100,0.00,,,0.30,Wunderground v.1.15,2013-03-19 13:38:00,
2013-03-19 09:44:00,59.8,59.8,29.81,NW,319,20.0,21.0,100,0.00,,,0.30,Wunderground v.1.15,2013-03-19 13:44:00,
2013-03-19 09:50:00,59.9,59.9,29.81,NW,322,19.0,19.0,100,0.00,,,0.30,Wunderground v.1.15,2013-03-19 13:50:00,
2013-03-19 09:56:00,60.1,60.1,29.81,NNW,328,19.0,20.0,100,0.00,,,0.30,Wunderground v.1.15,2013-03-19 13:56:00,
2013-03-19 10:02:00,60.2,60.2,29.80,NNW,328,18.0,19.0,100,0.00,,,0.30,Wunderground v.1.15,2013-03-19 14:02:00,
2013-03-19 10:08:00,60.1,60.1,29.80,NW,315,18.0,21.0,100,0.00,,,0.30,Wunderground v.1.15,2013-03-19 14:08:00,
2013-03-19 10:14:00,60.4,60.4,29.81,NW,320,18.0,18.0,100,0.00,,,0.30,Wunderground v.1.15,2013-03-19 14:14:00,
2013-03-19 10:20:00,60.4,60.4,29.81,NW,318,17.0,19.0,100,0.00,,,0.30,Wunderground v.1.15,2013-03-19 14:20:00,
2013-03-19 10:28:00,60.4,60.4,29.81,NW,316,18.0,20.0,100,0.00,,,0.30,Wunderground v.1.15,2013-03-19 14:28:00,
2013-03-19 10:34:00,59.9,59.9,29.82,NW,325,19.0,20.0,100,0.00,,,0.30,Wunderground v.1.15,2013-03-19 14:34:00,
2013-03-19 10:40:00,59.9,59.9,29.82,NW,315,19.0,21.0,100,0.00,,,0.30,Wunderground v.1.15,2013-03-19 14:40:00,
2013-03-19 10:46:00,59.8,59.5,29.82,NNW,335,19.0,24.0,99,0.00,,,0.30,Wunderground v.1.15,2013-03-19 14:46:00,
2013-03-19 10:52:00,59.8,59.5,29.82,NW,325,21.0,22.0,99,0.00,,,0.30,Wunderground v.1.15,2013-03-19 14:52:00,
2013-03-19 10:58:00,60.5,59.9,29.82,NW,315,19.0,22.0,98,0.00,,,0.30,Wunderground v.1.15,2013-03-19 14:58:00,
2013-03-19 11:04:00,61.0,60.1,29.82,NW,320,16.0,18.0,97,0.00,,,0.30,Wunderground v.1.15,2013-03-19 15:04:00,
2013-03-19 11:10:00,61.3,60.4,29.82,NW,312,15.0,15.0,97,0.00,,,0.30,Wunderground v.1.15,2013-03-19 15:10:00,
2013-03-19 11:16:00,61.6,60.4,29.82,NW,319,14.0,15.0,96,0.00,,,0.30,Wunderground v.1.15,2013-03-19 15:16:00,
2013-03-19 11:22:00,62.0,60.8,29.82,NW,315,14.0,14.0,96,0.00,,,0.30,Wunderground v.1.15,2013-03-19 15:22:00,
2013-03-19 11:28:00,62.1,60.7,29.82,NW,322,13.0,17.0,95,0.00,,,0.30,Wunderground v.1.15,2013-03-19 15:28:00,
2013-03-19 11:34:00,62.1,60.4,29.83,NW,319,13.0,13.0,94,0.00,,,0.30,Wunderground v.1.15,2013-03-19 15:34:00,
2013-03-19 11:40:00,62.6,60.2,29.83,NW,318,14.0,14.0,92,0.00,,,0.30,Wunderground v.1.15,2013-03-19 15:40:00,
2013-03-19 11:48:00,62.9,60.2,29.84,NW,320,15.0,20.0,91,0.00,,,0.30,Wunderground v.1.15,2013-03-19 15:48:00,
2013-03-19 11:54:00,63.2,60.5,29.84,NW,322,15.0,18.0,91,0.00,,,0.30,Wunderground v.1.15,2013-03-19 15:54:00,
2013-03-19 12:00:00,63.4,60.1,29.84,NNW,336,14.0,21.0,89,0.00,,,0.30,Wunderground v.1.15,2013-03-19 16:00:00,
2013-03-19 12:06:00,63.7,60.1,29.84,NW,318,18.0,22.0,88,0.00,,,0.30,Wunderground v.1.15,2013-03-19 16:06:00,
2013-03-19 12:12:00,64.2,60.2,29.84,NW,325,17.0,19.0,87,0.00,,,0.30,Wunderground v.1.15,2013-03-19 16:12:00,
2013-03-19 12:18:00,64.5,60.5,29.84,NNW,329,14.0,19.0,87,0.00,,,0.30,Wunderground v.1.15,2013-03-19 16:18:00,
2013-03-19 12:24:00,65.0,60.7,29.84,NW,316,12.0,14.0,86,0.00,,,0.30,Wunderground v.1.15,2013-03-19 16:24:00,
2013-03-19 12:30:00,65.2,61.2,29.84,NW,326,11.0,11.0,87,0.00,,,0.30,Wunderground v.1.15,2013-03-19 16:30:00,
2013-03-19 12:36:00,65.0,60.7,29.84,NW,326,10.0,13.0,86,0.00,,,0.30,Wunderground v.1.15,2013-03-19 16:36:00,
2013-03-19 12:42:00,65.0,60.7,29.84,NW,320,11.0,11.0,86,0.00,,,0.30,Wunderground v.1.15,2013-03-19 16:42:00,
2013-03-19 12:48:00,65.3,60.3,29.84,NW,323,10.0,11.0,84,0.00,,,0.30,Wunderground v.1.15,2013-03-19 16:48:00,
2013-03-19 12:54:00,65.5,60.9,29.84,NW,316,11.0,16.0,85,0.00,,,0.30,Wunderground v.1.15,2013-03-19 16:54:00,
2013-03-19 13:00:00,66.0,60.3,29.83,NW,322,14.0,16.0,82,0.00,,,0.30,Wunderground v.1.15,2013-03-19 17:00:00,
2013-03-19 13:08:00,66.8,60.4,29.83,NNW,328,13.0,17.0,80,0.00,,,0.30,Wunderground v.1.15,2013-03-19 17:08:00,
2013-03-19 13:14:00,66.4,59.7,29.83,NNW,342,13.0,19.0,79,0.00,,,0.30,Wunderground v.1.15,2013-03-19 17:14:00,
2013-03-19 13:20:00,65.6,58.6,29.83,NNW,330,13.0,13.0,78,0.00,,,0.30,Wunderground v.1.15,2013-03-19 17:20:00,
2013-03-19 13:28:00,66.4,60.0,29.83,NW,326,12.0,18.0,80,0.00,,,0.30,Wunderground v.1.15,2013-03-19 17:28:00,
2013-03-19 13:34:00,66.8,59.4,29.82,NW,315,15.0,20.0,77,0.00,,,0.30,Wunderground v.1.15,2013-03-19 17:34:00,
2013-03-19 13:40:00,67.4,59.6,29.82,NNW,344,15.0,15.0,76,0.00,,,0.30,Wunderground v.1.15,2013-03-19 17:40:00,
2013-03-19 13:46:00,67.4,60.3,29.82,NNW,332,10.0,15.0,78,0.00,,,0.30,Wunderground v.1.15,2013-03-19 17:46:00,
2013-03-19 13:52:00,67.1,59.3,29.82,NNW,344,11.0,19.0,76,0.00,,,0.30,Wunderground v.1.15,2013-03-19 17:52:00,
2013-03-19 13:58:00,66.9,59.1,29.82,NW,319,14.0,19.0,76,0.00,,,0.30,Wunderground v.1.15,2013-03-19 17:58:00,
2013-03-19 14:04:00,67.9,59.3,29.82,NNW,330,14.0,15.0,74,0.00,,,0.30,Wunderground v.1.15,2013-03-19 18:04:00,
2013-03-19 14:10:00,67.8,60.3,29.82,NW,320,10.0,10.0,77,0.00,,,0.30,Wunderground v.1.15,2013-03-19 18:10:00,
2013-03-19 14:16:00,68.4,59.0,29.81,North,353,9.0,16.0,72,0.00,,,0.30,Wunderground v.1.15,2013-03-19 18:16:00,
2013-03-19 14:22:00,67.1,60.4,29.81,North,350,11.0,11.0,79,0.00,,,0.30,Wunderground v.1.15,2013-03-19 18:22:00,
2013-03-19 14:28:00,67.8,59.6,29.81,North,356,11.0,17.0,75,0.00,,,0.30,Wunderground v.1.15,2013-03-19 18:28:00,
2013-03-19 14:34:00,68.1,60.2,29.80,North,350,9.0,10.0,76,0.00,,,0.30,Wunderground v.1.15,2013-03-19 18:34:00,
2013-03-19 14:40:00,68.3,60.1,29.80,NNW,330,5.0,9.0,75,0.00,,,0.30,Wunderground v.1.15,2013-03-19 18:40:00,
2013-03-19 14:46:00,68.1,59.9,29.80,NNW,336,6.0,10.0,75,0.00,,,0.30,Wunderground v.1.15,2013-03-19 18:46:00,
2013-03-19 14:52:00,69.4,59.6,29.80,NW,319,9.0,18.0,71,0.00,,,0.30,Wunderground v.1.15,2013-03-19 18:52:00,
2013-03-19 14:58:00,70.1,59.5,29.80,NW,323,14.0,18.0,69,0.00,,,0.30,Wunderground v.1.15,2013-03-19 18:58:00,
2013-03-19 15:04:00,69.9,60.5,29.79,NNW,330,12.0,15.0,72,0.00,,,0.30,Wunderground v.1.15,2013-03-19 19:04:00,
2013-03-19 15:10:00,69.6,59.0,29.79,NW,322,10.0,10.0,69,0.00,,,0.30,Wunderground v.1.15,2013-03-19 19:10:00,
2013-03-19 15:18:00,69.9,58.4,29.79,NNW,339,13.0,19.0,67,0.00,,,0.30,Wunderground v.1.15,2013-03-19 19:18:00,
2013-03-19 15:24:00,70.4,58.9,29.79,NW,322,15.0,16.0,67,0.00,,,0.30,Wunderground v.1.15,2013-03-19 19:24:00,
2013-03-19 15:30:00,70.9,59.4,29.79,NW,312,13.0,13.0,67,0.00,,,0.30,Wunderground v.1.15,2013-03-19 19:30:00,
2013-03-19 15:36:00,70.3,58.0,29.79,NNW,333,11.0,13.0,65,0.00,,,0.30,Wunderground v.1.15,2013-03-19 19:36:00,
2013-03-19 15:42:00,71.3,58.9,29.79,NNW,346,7.0,11.0,65,0.00,,,0.30,Wunderground v.1.15,2013-03-19 19:42:00,
2013-03-19 15:48:00,71.6,58.8,29.78,NW,313,9.0,11.0,64,0.00,,,0.30,Wunderground v.1.15,2013-03-19 19:48:00,
2013-03-19 15:54:00,72.0,60.0,29.78,NW,308,8.0,9.0,66,0.00,,,0.30,Wunderground v.1.15,2013-03-19 19:54:00,
2013-03-19 16:00:00,72.3,59.4,29.78,NNW,330,6.0,7.0,64,0.00,,,0.30,Wunderground v.1.15,2013-03-19 20:00:00,
2013-03-19 16:08:00,72.0,57.8,29.78,NNW,333,8.0,12.0,61,0.00,,,0.30,Wunderground v.1.15,2013-03-19 20:08:00,
2013-03-19 16:14:00,72.3,56.7,29.78,NW,320,10.0,16.0,58,0.00,,,0.30,Wunderground v.1.15,2013-03-19 20:14:00,
2013-03-19 16:20:00,72.7,58.5,29.78,NW,315,9.0,11.0,61,0.00,,,0.30,Wunderground v.1.15,2013-03-19 20:20:00,
2013-03-19 16:26:00,72.1,57.0,29.78,NW,322,8.0,13.0,59,0.00,,,0.30,Wunderground v.1.15,2013-03-19 20:26:00,
2013-03-19 16:32:00,72.0,59.2,29.79,NW,311,11.0,12.0,64,0.00,,,0.30,Wunderground v.1.15,2013-03-19 20:32:00,
2013-03-19 16:38:00,71.6,58.3,29.79,NW,305,11.0,12.0,63,0.00,,,0.30,Wunderground v.1.15,2013-03-19 20:38:00,
2013-03-19 16:44:00,71.8,58.5,29.79,NW,313,10.0,11.0,63,0.00,,,0.30,Wunderground v.1.15,2013-03-19 20:44:00,
2013-03-19 16:50:00,72.3,55.7,29.79,WNW,298,10.0,13.0,56,0.00,,,0.30,Wunderground v.1.15,2013-03-19 20:50:00,
2013-03-19 16:56:00,72.5,57.4,29.79,NW,312,11.0,13.0,59,0.00,,,0.30,Wunderground v.1.15,2013-03-19 20:56:00,
2013-03-19 17:02:00,73.2,57.1,29.79,NW,311,9.0,10.0,57,0.00,,,0.30,Wunderground v.1.15,2013-03-19 21:02:00,
2013-03-19 17:08:00,73.0,56.4,29.79,NW,318,10.0,11.0,56,0.00,,,0.30,Wunderground v.1.15,2013-03-19 21:08:00,
2013-03-19 17:14:00,72.1,56.5,29.79,NW,318,10.0,11.0,58,0.00,,,0.30,Wunderground v.1.15,2013-03-19 21:14:00,
2013-03-19 17:20:00,73.7,53.3,29.79,WNW,302,11.0,12.0,49,0.00,,,0.30,Wunderground v.1.15,2013-03-19 21:20:00,
2013-03-19 17:26:00,73.7,51.6,29.79,NW,315,12.0,13.0,46,0.00,,,0.30,Wunderground v.1.15,2013-03-19 21:26:00,
2013-03-19 17:32:00,72.7,58.0,29.78,NW,308,10.0,11.0,60,0.00,,,0.30,Wunderground v.1.15,2013-03-19 21:32:00,
2013-03-19 17:38:00,71.8,57.2,29.78,NW,311,9.0,13.0,60,0.00,,,0.30,Wunderground v.1.15,2013-03-19 21:38:00,
2013-03-19 17:44:00,73.5,49.0,29.78,WNW,296,11.0,14.0,42,0.00,,,0.30,Wunderground v.1.15,2013-03-19 21:44:00,
2013-03-19 17:50:00,72.8,55.2,29.78,NW,325,13.0,13.0,54,0.00,,,0.30,Wunderground v.1.15,2013-03-19 21:50:00,
2013-03-19 17:56:00,72.1,54.5,29.78,NW,316,13.0,13.0,54,0.00,,,0.30,Wunderground v.1.15,2013-03-19 21:56:00,
2013-03-19 18:02:00,73.3,51.3,29.79,NW,308,12.0,13.0,46,0.00,,,0.30,Wunderground v.1.15,2013-03-19 22:02:00,
2013-03-19 18:08:00,71.8,56.7,29.79,NW,312,11.0,13.0,59,0.00,,,0.30,Wunderground v.1.15,2013-03-19 22:08:00,
2013-03-19 18:14:00,72.3,53.7,29.79,NW,313,12.0,15.0,52,0.00,,,0.30,Wunderground v.1.15,2013-03-19 22:14:00,
2013-03-19 18:20:00,71.8,51.6,29.79,NW,313,13.0,13.0,49,0.00,,,0.30,Wunderground v.1.15,2013-03-19 22:20:00,
2013-03-19 18:26:00,71.1,52.6,29.79,NW,312,11.0,14.0,52,0.00,,,0.30,Wunderground v.1.15,2013-03-19 22:26:00,
2013-03-19 18:32:00,70.4,54.0,29.80,NW,308,13.0,13.0,56,0.00,,,0.30,Wunderground v.1.15,2013-03-19 22:32:00,
2013-03-19 18:38:00,70.4,51.9,29.80,NW,313,14.0,16.0,52,0.00,,,0.30,Wunderground v.1.15,2013-03-19 22:38:00,
2013-03-19 18:44:00,70.3,53.9,29.80,NNW,328,16.0,18.0,56,0.00,,,0.30,Wunderground v.1.15,2013-03-19 22:44:00,
2013-03-19 18:50:00,70.4,52.4,29.80,NW,318,17.0,17.0,53,0.00,,,0.30,Wunderground v.1.15,2013-03-19 22:50:00,
2013-03-19 18:58:00,70.4,50.9,29.80,NW,322,13.0,17.0,50,0.00,,,0.30,Wunderground v.1.15,2013-03-19 22:58:00,
2013-03-19 19:04:00,69.9,50.9,29.81,NW,322,12.0,13.0,51,0.00,,,0.30,Wunderground v.1.15,2013-03-19 23:04:00,
2013-03-19 19:10:00,70.3,52.4,29.81,NW,322,12.0,12.0,53,0.00,,,0.30,Wunderground v.1.15,2013-03-19 23:10:00,
2013-03-19 19:18:00,69.4,51.5,29.81,NW,323,11.0,12.0,53,0.00,,,0.30,Wunderground v.1.15,2013-03-19 23:18:00,
2013-03-19 19:24:00,68.9,52.1,29.81,NW,316,10.0,12.0,55,0.00,,,0.30,Wunderground v.1.15,2013-03-19 23:24:00,
2013-03-19 19:30:00,68.4,53.0,29.82,NW,315,10.0,10.0,58,0.00,,,0.30,Wunderground v.1.15,2013-03-19 23:30:00,
2013-03-19 19:36:00,67.8,56.4,29.82,NW,306,8.0,10.0,67,0.00,,,0.30,Wunderground v.1.15,2013-03-19 23:36:00,
2013-03-19 19:42:00,66.8,56.3,29.82,NW,306,6.0,7.0,69,0.00,,,0.30,Wunderground v.1.15,2013-03-19 23:42:00,
2013-03-19 19:48:00,68.1,47.7,29.82,WNW,295,3.0,7.0,48,0.00,,,0.30,Wunderground v.1.15,2013-03-19 23:48:00,
2013-03-19 19:54:00,68.4,46.8,29.82,NW,304,2.0,3.0,46,0.00,,,0.30,Wunderground v.1.15,2013-03-19 23:54:00,
2013-03-19 20:00:00,66.9,56.0,29.83,NW,305,2.0,3.0,68,0.00,,,0.30,Wunderground v.1.15,2013-03-20 00:00:00,
2013-03-19 20:08:00,65.2,55.2,29.83,NW,304,2.0,3.0,70,0.00,,,0.30,Wunderground v.1.15,2013-03-20 00:08:00,
2013-03-19 20:14:00,65.2,55.9,29.83,NW,309,2.0,3.0,72,0.00,,,0.30,Wunderground v.1.15,2013-03-20 00:14:00,
2013-03-19 20:20:00,65.0,56.9,29.83,NNW,335,2.0,3.0,75,0.00,,,0.30,Wunderground v.1.15,2013-03-20 00:20:00,
2013-03-19 20:26:00,64.3,54.7,29.83,North,352,3.0,6.0,71,0.00,,,0.30,Wunderground v.1.15,2013-03-20 00:26:00,
2013-03-19 20:32:00,66.0,53.5,29.84,NNW,343,4.0,4.0,64,0.00,,,0.30,Wunderground v.1.15,2013-03-20 00:32:00,
2013-03-19 20:38:00,65.5,55.8,29.84,NNW,344,4.0,8.0,71,0.00,,,0.30,Wunderground v.1.15,2013-03-20 00:38:00,
2013-03-19 20:44:00,64.7,56.6,29.84,North,349,6.0,8.0,75,0.00,,,0.30,Wunderground v.1.15,2013-03-20 00:44:00,
2013-03-19 20:50:00,63.9,56.5,29.84,NNW,347,5.0,5.0,77,0.00,,,0.30,Wunderground v.1.15,2013-03-20 00:50:00,
2013-03-19 20:58:00,63.5,56.5,29.84,North,353,4.0,5.0,78,0.00,,,0.30,Wunderground v.1.15,2013-03-20 00:58:00,
2013-03-19 21:04:00,63.5,57.2,29.85,North,349,3.0,5.0,80,0.00,,,0.30,Wunderground v.1.15,2013-03-20 01:04:00,
2013-03-19 21:10:00,63.5,55.8,29.85,NNW,339,3.0,3.0,76,0.00,,,0.30,Wunderground v.1.15,2013-03-20 01:10:00,
2013-03-19 21:16:00,63.4,56.8,29.86,NNW,336,3.0,3.0,79,0.00,,,0.30,Wunderground v.1.15,2013-03-20 01:16:00,
2013-03-19 21:22:00,63.1,56.8,29.86,NNW,339,3.0,3.0,80,0.00,,,0.30,Wunderground v.1.15,2013-03-20 01:22:00,
2013-03-19 21:28:00,62.6,56.3,29.86,NNW,332,3.0,3.0,80,0.00,,,0.30,Wunderground v.1.15,2013-03-20 01:28:00,
2013-03-19 21:34:00,62.6,56.7,29.87,NNW,340,3.0,3.0,81,0.00,,,0.30,Wunderground v.1.15,2013-03-20 01:34:00,
2013-03-19 21:40:00,62.4,57.2,29.87,NNW,344,2.0,2.0,83,0.00,,,0.30,Wunderground v.1.15,2013-03-20 01:40:00,
2013-03-19 21:48:00,62.1,54.1,29.87,NNW,342,0.0,2.0,75,0.00,,,0.30,Wunderground v.1.15,2013-03-20 01:48:00,
2013-03-19 21:54:00,62.4,54.4,29.87,NNW,339,0.0,0.0,75,0.00,,,0.30,Wunderground v.1.15,2013-03-20 01:54:00,
2013-03-19 22:00:00,62.0,54.3,29.87,NNW,339,0.0,0.0,76,0.00,,,0.30,Wunderground v.1.15,2013-03-20 02:00:00,
2013-03-19 22:08:00,61.3,55.1,29.87,NNW,339,0.0,0.0,80,0.00,,,0.30,Wunderground v.1.15,2013-03-20 02:08:00,
2013-03-19 22:14:00,61.6,56.0,29.87,NNW,339,0.0,0.0,82,0.00,,,0.30,Wunderground v.1.15,2013-03-20 02:14:00,
2013-03-19 22:20:00,61.6,54.0,29.87,NNW,342,2.0,6.0,76,0.00,,,0.30,Wunderground v.1.15,2013-03-20 02:20:00,
2013-03-19 22:28:00,62.9,50.1,29.87,NNW,340,8.0,10.0,63,0.00,,,0.30,Wunderground v.1.15,2013-03-20 02:28:00,
2013-03-19 22:34:00,63.9,49.7,29.88,NNW,346,11.0,11.0,60,0.00,,,0.30,Wunderground v.1.15,2013-03-20 02:34:00,
2013-03-19 22:40:00,63.5,48.0,29.88,North,350,11.0,11.0,57,0.00,,,0.30,Wunderground v.1.15,2013-03-20 02:40:00,
2013-03-19 22:46:00,63.4,48.8,29.88,North,349,9.0,11.0,59,0.00,,,0.30,Wunderground v.1.15,2013-03-20 02:46:00,
2013-03-19 22:52:00,63.1,50.7,29.88,NNW,346,8.0,9.0,64,0.00,,,0.30,Wunderground v.1.15,2013-03-20 02:52:00,
2013-03-19 22:58:00,62.3,52.0,29.88,North,349,9.0,9.0,69,0.00,,,0.30,Wunderground v.1.15,2013-03-20 02:58:00,
2013-03-19 23:04:00,62.3,52.0,29.88,North,354,8.0,10.0,69,0.00,,,0.30,Wunderground v.1.15,2013-03-20 03:04:00,
2013-03-19 23:10:00,62.6,50.2,29.88,North,352,10.0,11.0,64,0.00,,,0.30,Wunderground v.1.15,2013-03-20 03:10:00,
2013-03-19 23:16:00,62.4,50.5,29.88,NNW,347,11.0,12.0,65,0.00,,,0.30,Wunderground v.1.15,2013-03-20 03:16:00,
2013-03-19 23:22:00,62.7,47.2,29.88,NNW,339,12.0,14.0,57,0.00,,,0.30,Wunderground v.1.15,2013-03-20 03:22:00,
2013-03-19 23:28:00,63.1,46.2,29.88,NNW,340,13.0,14.0,54,0.00,,,0.30,Wunderground v.1.15,2013-03-20 03:28:00,
2013-03-19 23:34:00,63.2,45.3,29.89,NNW,342,14.0,16.0,52,0.00,,,0.30,Wunderground v.1.15,2013-03-20 03:34:00,
2013-03-19 23:40:00,63.5,44.5,29.89,NNW,344,15.0,15.0,50,0.00,,,0.30,Wunderground v.1.15,2013-03-20 03:40:00,
2013-03-19 23:48:00,63.1,45.7,29.89,NNW,343,14.0,15.0,53,0.00,,,0.30,Wunderground v.1.15,2013-03-20 03:48:00,
2013-03-19 23:54:00,62.9,46.5,29.89,NNW,344,13.0,13.0,55,0.00,,,0.30,Wunderground v.1.15,2013-03-20 03:54:00,